sensor_id;sensor_type;location;lat;lon;timestamp;temperature;humidity
6484;DHT22;3275;52.376;9.694;2023-09-19T06:08:09;16.60;99.90
6484;DHT22;3275;52.376;9.694;2023-09-19T06:10:36;16.60;99.90
6484;DHT22;3275;52.376;9.694;2023-09-19T06:13:03;16.70;99.90
6484;DHT22;3275;52.376;9.694;2023-09-19T06:15:31;16.70;99.90
6484;DHT22;3275;52.376;9.694;2023-09-19T06:18:01;16.70;99.90
6484;DHT22;3275;52.376;9.694;2023-09-19T06:20:30;16.70;99.90
6484;DHT22;3275;52.376;9.694;2023-09-19T06:22:58;16.60;99.90
6484;DHT22;3275;52.376;9.694;2023-09-19T06:25:28;16.60;99.90
6484;DHT22;3275;52.376;9.694;2023-09-19T06:27:58;16.70;99.90
6484;DHT22;3275;52.376;9.694;2023-09-19T06:30:25;16.60;99.90
6484;DHT22;3275;52.376;9.694;2023-09-19T06:32:55;16.60;99.90
6484;DHT22;3275;52.376;9.694;2023-09-19T06:35:22;16.60;99.90
6484;DHT22;3275;52.376;9.694;2023-09-19T06:37:49;16.70;99.90
6484;DHT22;3275;52.376;9.694;2023-09-19T06:40:16;16.80;99.90
6484;DHT22;3275;52.376;9.694;2023-09-19T06:42:45;16.70;99.90
6484;DHT22;3275;52.376;9.694;2023-09-19T06:45:12;16.80;99.90
6484;DHT22;3275;52.376;9.694;2023-09-19T06:47:43;16.70;99.90
6484;DHT22;3275;52.376;9.694;2023-09-19T06:50:10;16.70;99.90
6484;DHT22;3275;52.376;9.694;2023-09-19T06:52:39;16.80;99.90
6484;DHT22;3275;52.376;9.694;2023-09-19T06:55:06;16.70;99.90
6484;DHT22;3275;52.376;9.694;2023-09-19T06:57:33;16.70;99.90
6484;DHT22;3275;52.376;9.694;2023-09-19T07:00:01;16.80;99.90
6484;DHT22;3275;52.376;9.694;2023-09-19T07:02:28;16.80;99.90
6484;DHT22;3275;52.376;9.694;2023-09-19T07:04:54;16.90;99.90
6484;DHT22;3275;52.376;9.694;2023-09-19T07:07:21;16.90;99.90
6484;DHT22;3275;52.376;9.694;2023-09-19T07:09:47;16.90;99.90
6484;DHT22;3275;52.376;9.694;2023-09-19T07:12:16;16.80;99.90
6484;DHT22;3275;52.376;9.694;2023-09-19T07:14:43;16.80;99.90
6484;DHT22;3275;52.376;9.694;2023-09-19T07:17:11;16.80;99.90
6484;DHT22;3275;52.376;9.694;2023-09-19T07:19:38;16.80;99.90
6484;DHT22;3275;52.376;9.694;2023-09-19T07:22:05;16.90;99.90
6484;DHT22;3275;52.376;9.694;2023-09-19T07:24:33;16.90;99.90
6484;DHT22;3275;52.376;9.694;2023-09-19T07:27:02;16.90;99.90
6484;DHT22;3275;52.376;9.694;2023-09-19T07:29:30;16.90;99.90
6484;DHT22;3275;52.376;9.694;2023-09-19T07:31:57;16.90;99.90
6484;DHT22;3275;52.376;9.694;2023-09-19T07:34:25;16.90;99.90
6484;DHT22;3275;52.376;9.694;2023-09-19T07:36:52;16.90;99.90
6484;DHT22;3275;52.376;9.694;2023-09-19T07:39:18;17.00;99.60
6484;DHT22;3275;52.376;9.694;2023-09-19T07:41:45;17.10;99.50
6484;DHT22;3275;52.376;9.694;2023-09-19T07:44:12;17.00;99.60
6484;DHT22;3275;52.376;9.694;2023-09-19T07:46:38;17.10;99.30
6484;DHT22;3275;52.376;9.694;2023-09-19T07:49:05;17.20;99.10
6484;DHT22;3275;52.376;9.694;2023-09-19T07:51:33;17.20;99.10
6484;DHT22;3275;52.376;9.694;2023-09-19T07:54:02;17.20;98.80
6484;DHT22;3275;52.376;9.694;2023-09-19T07:56:29;17.20;99.20
6484;DHT22;3275;52.376;9.694;2023-09-19T07:58:57;17.30;98.40
6484;DHT22;3275;52.376;9.694;2023-09-19T08:01:24;17.40;98.20
6484;DHT22;3275;52.376;9.694;2023-09-19T08:03:52;17.30;98.30
6484;DHT22;3275;52.376;9.694;2023-09-19T08:06:19;17.20;98.80
6484;DHT22;3275;52.376;9.694;2023-09-19T08:08:50;17.30;98.70
6484;DHT22;3275;52.376;9.694;2023-09-19T08:11:19;17.30;98.70
6484;DHT22;3275;52.376;9.694;2023-09-19T08:13:47;17.30;98.60
6484;DHT22;3275;52.376;9.694;2023-09-19T08:16:14;17.30;98.90
6484;DHT22;3275;52.376;9.694;2023-09-19T08:18:41;17.30;98.10
6484;DHT22;3275;52.376;9.694;2023-09-19T08:21:11;17.30;98.00
6484;DHT22;3275;52.376;9.694;2023-09-19T08:23:38;17.30;98.10
6484;DHT22;3275;52.376;9.694;2023-09-19T08:26:06;17.30;97.90
6484;DHT22;3275;52.376;9.694;2023-09-19T08:28:34;17.30;97.40
6484;DHT22;3275;52.376;9.694;2023-09-19T08:31:02;17.30;97.70
6484;DHT22;3275;52.376;9.694;2023-09-19T08:33:31;17.30;97.60
6484;DHT22;3275;52.376;9.694;2023-09-19T08:35:58;17.40;98.00
6484;DHT22;3275;52.376;9.694;2023-09-19T08:38:25;17.40;97.80
6484;DHT22;3275;52.376;9.694;2023-09-19T08:40:57;17.30;97.80
6484;DHT22;3275;52.376;9.694;2023-09-19T08:43:25;17.50;97.60
6484;DHT22;3275;52.376;9.694;2023-09-19T08:45:58;17.50;97.80
6484;DHT22;3275;52.376;9.694;2023-09-19T08:48:29;17.50;97.30
6484;DHT22;3275;52.376;9.694;2023-09-19T08:51:02;17.60;97.00
6484;DHT22;3275;52.376;9.694;2023-09-19T08:53:36;17.70;97.00
6484;DHT22;3275;52.376;9.694;2023-09-19T08:56:09;17.60;97.10
6484;DHT22;3275;52.376;9.694;2023-09-19T08:58:43;17.70;97.00
6484;DHT22;3275;52.376;9.694;2023-09-19T09:01:13;17.60;97.40
6484;DHT22;3275;52.376;9.694;2023-09-19T09:03:43;17.60;97.20
6484;DHT22;3275;52.376;9.694;2023-09-19T09:06:14;17.60;97.20
6484;DHT22;3275;52.376;9.694;2023-09-19T09:08:41;17.60;98.10
6484;DHT22;3275;52.376;9.694;2023-09-19T09:11:09;17.70;97.50
6484;DHT22;3275;52.376;9.694;2023-09-19T09:13:38;17.70;97.50
6484;DHT22;3275;52.376;9.694;2023-09-19T09:16:06;17.70;97.50
6484;DHT22;3275;52.376;9.694;2023-09-19T09:18:33;17.80;97.60
6484;DHT22;3275;52.376;9.694;2023-09-19T09:21:00;17.90;97.10
6484;DHT22;3275;52.376;9.694;2023-09-19T09:23:27;17.90;97.80
6484;DHT22;3275;52.376;9.694;2023-09-19T09:25:56;17.90;97.50
6484;DHT22;3275;52.376;9.694;2023-09-19T09:28:26;17.90;97.30
6484;DHT22;3275;52.376;9.694;2023-09-19T09:30:55;17.90;97.50
6484;DHT22;3275;52.376;9.694;2023-09-19T09:33:23;17.90;96.70
6484;DHT22;3275;52.376;9.694;2023-09-19T09:35:51;18.00;97.00
6484;DHT22;3275;52.376;9.694;2023-09-19T09:38:19;18.10;97.40
6484;DHT22;3275;52.376;9.694;2023-09-19T09:40:47;18.20;96.00
6484;DHT22;3275;52.376;9.694;2023-09-19T09:43:28;18.10;96.20
6484;DHT22;3275;52.376;9.694;2023-09-19T09:46:11;18.10;97.10
6484;DHT22;3275;52.376;9.694;2023-09-19T09:48:57;18.10;97.30
6484;DHT22;3275;52.376;9.694;2023-09-19T09:51:45;18.20;96.90
6484;DHT22;3275;52.376;9.694;2023-09-19T09:54:15;18.40;95.90
6484;DHT22;3275;52.376;9.694;2023-09-19T09:56:55;18.40;95.90
6484;DHT22;3275;52.376;9.694;2023-09-19T09:59:49;18.40;95.70
6484;DHT22;3275;52.376;9.694;2023-09-19T10:02:24;18.50;95.50
6484;DHT22;3275;52.376;9.694;2023-09-19T10:04:53;18.50;95.30
6484;DHT22;3275;52.376;9.694;2023-09-19T10:07:35;18.50;95.20
6484;DHT22;3275;52.376;9.694;2023-09-19T10:10:04;18.50;95.30
6484;DHT22;3275;52.376;9.694;2023-09-19T10:12:44;18.60;95.20
6484;DHT22;3275;52.376;9.694;2023-09-19T10:15:15;18.70;94.90
6484;DHT22;3275;52.376;9.694;2023-09-19T10:17:44;18.70;94.40
6484;DHT22;3275;52.376;9.694;2023-09-19T10:20:15;18.70;94.80
6484;DHT22;3275;52.376;9.694;2023-09-19T10:22:59;18.70;95.00
6484;DHT22;3275;52.376;9.694;2023-09-19T10:25:27;18.70;95.00
6484;DHT22;3275;52.376;9.694;2023-09-19T10:27:56;18.70;94.90
6484;DHT22;3275;52.376;9.694;2023-09-19T10:30:25;18.80;94.50
6484;DHT22;3275;52.376;9.694;2023-09-19T10:33:00;18.90;94.30
6484;DHT22;3275;52.376;9.694;2023-09-19T10:35:28;18.90;94.40
6484;DHT22;3275;52.376;9.694;2023-09-19T10:37:57;18.80;94.80
6484;DHT22;3275;52.376;9.694;2023-09-19T10:40:27;18.80;94.20
6484;DHT22;3275;52.376;9.694;2023-09-19T10:43:01;18.80;93.80
6484;DHT22;3275;52.376;9.694;2023-09-19T10:45:30;18.80;93.70
6484;DHT22;3275;52.376;9.694;2023-09-19T10:48:00;18.70;94.50
6484;DHT22;3275;52.376;9.694;2023-09-19T10:50:31;18.80;94.10
6484;DHT22;3275;52.376;9.694;2023-09-19T10:53:00;18.90;94.30
6484;DHT22;3275;52.376;9.694;2023-09-19T10:55:32;19.00;94.40
6484;DHT22;3275;52.376;9.694;2023-09-19T10:58:01;19.00;94.60
6484;DHT22;3275;52.376;9.694;2023-09-19T11:00:30;19.10;93.20
6484;DHT22;3275;52.376;9.694;2023-09-19T11:03:20;19.00;93.80
6484;DHT22;3275;52.376;9.694;2023-09-19T11:06:13;19.00;94.10
6484;DHT22;3275;52.376;9.694;2023-09-19T11:09:00;19.20;93.30
6484;DHT22;3275;52.376;9.694;2023-09-19T11:11:49;19.20;93.70
6484;DHT22;3275;52.376;9.694;2023-09-19T11:14:30;19.40;92.70
6484;DHT22;3275;52.376;9.694;2023-09-19T11:20:21;19.40;92.80
6484;DHT22;3275;52.376;9.694;2023-09-19T11:23:18;19.50;92.30
6484;DHT22;3275;52.376;9.694;2023-09-19T11:25:48;19.50;92.10
6484;DHT22;3275;52.376;9.694;2023-09-19T11:28:28;19.50;92.20
6484;DHT22;3275;52.376;9.694;2023-09-19T11:30:56;19.40;92.10
6484;DHT22;3275;52.376;9.694;2023-09-19T11:33:24;19.40;92.10
6484;DHT22;3275;52.376;9.694;2023-09-19T11:36:03;19.40;92.60
6484;DHT22;3275;52.376;9.694;2023-09-19T11:38:57;19.40;92.90
6484;DHT22;3275;52.376;9.694;2023-09-19T11:41:39;19.50;93.00
6484;DHT22;3275;52.376;9.694;2023-09-19T11:44:33;19.60;92.40
6484;DHT22;3275;52.376;9.694;2023-09-19T11:47:04;19.70;90.70
6484;DHT22;3275;52.376;9.694;2023-09-19T11:49:32;19.70;91.20
6484;DHT22;3275;52.376;9.694;2023-09-19T11:52:02;19.70;91.60
6484;DHT22;3275;52.376;9.694;2023-09-19T11:54:31;19.80;92.30
6484;DHT22;3275;52.376;9.694;2023-09-19T11:56:59;20.00;91.90
6484;DHT22;3275;52.376;9.694;2023-09-19T11:59:27;19.90;91.00
6484;DHT22;3275;52.376;9.694;2023-09-19T12:01:55;19.80;91.20
6484;DHT22;3275;52.376;9.694;2023-09-19T12:04:34;19.90;91.20
6484;DHT22;3275;52.376;9.694;2023-09-19T12:07:05;20.00;92.00
6484;DHT22;3275;52.376;9.694;2023-09-19T12:09:39;20.10;92.00
6484;DHT22;3275;52.376;9.694;2023-09-19T12:12:07;20.20;91.70
6484;DHT22;3275;52.376;9.694;2023-09-19T12:14:34;20.10;91.30
6484;DHT22;3275;52.376;9.694;2023-09-19T12:17:01;20.10;91.30
6484;DHT22;3275;52.376;9.694;2023-09-19T12:19:29;20.10;91.20
6484;DHT22;3275;52.376;9.694;2023-09-19T12:21:59;20.10;91.40
6484;DHT22;3275;52.376;9.694;2023-09-19T12:24:31;20.00;92.70
6484;DHT22;3275;52.376;9.694;2023-09-19T12:27:03;20.00;91.80
6484;DHT22;3275;52.376;9.694;2023-09-19T12:29:42;19.80;92.30
6484;DHT22;3275;52.376;9.694;2023-09-19T12:32:09;19.80;92.20
6484;DHT22;3275;52.376;9.694;2023-09-19T12:34:36;19.80;91.90
6484;DHT22;3275;52.376;9.694;2023-09-19T12:37:08;19.80;92.20
6484;DHT22;3275;52.376;9.694;2023-09-19T12:39:41;19.90;92.50
6484;DHT22;3275;52.376;9.694;2023-09-19T12:42:12;20.10;91.80
6484;DHT22;3275;52.376;9.694;2023-09-19T12:44:41;20.30;92.10
6484;DHT22;3275;52.376;9.694;2023-09-19T12:47:11;20.30;92.20
6484;DHT22;3275;52.376;9.694;2023-09-19T12:52:41;20.50;91.30
6484;DHT22;3275;52.376;9.694;2023-09-19T12:55:19;20.70;91.20
6484;DHT22;3275;52.376;9.694;2023-09-19T12:57:56;20.80;91.40
6484;DHT22;3275;52.376;9.694;2023-09-19T13:00:32;21.10;90.60
6484;DHT22;3275;52.376;9.694;2023-09-19T13:03:17;21.40;90.70
6484;DHT22;3275;52.376;9.694;2023-09-19T13:05:49;22.00;89.80
6484;DHT22;3275;52.376;9.694;2023-09-19T13:08:18;22.90;88.50
6484;DHT22;3275;52.376;9.694;2023-09-19T13:11:03;23.90;87.20
6484;DHT22;3275;52.376;9.694;2023-09-19T13:13:32;24.10;82.20
6484;DHT22;3275;52.376;9.694;2023-09-19T13:16:01;24.60;80.10
6484;DHT22;3275;52.376;9.694;2023-09-19T13:18:30;24.60;80.50
6484;DHT22;3275;52.376;9.694;2023-09-19T13:21:07;25.50;78.80
6484;DHT22;3275;52.376;9.694;2023-09-19T13:23:37;26.60;76.90
6484;DHT22;3275;52.376;9.694;2023-09-19T13:26:06;27.10;75.40
6484;DHT22;3275;52.376;9.694;2023-09-19T13:28:34;26.60;73.60
6484;DHT22;3275;52.376;9.694;2023-09-19T13:31:01;26.40;75.10
6484;DHT22;3275;52.376;9.694;2023-09-19T13:33:28;27.30;74.00
6484;DHT22;3275;52.376;9.694;2023-09-19T13:35:56;28.30;73.60
6484;DHT22;3275;52.376;9.694;2023-09-19T13:38:23;28.80;70.50
6484;DHT22;3275;52.376;9.694;2023-09-19T13:40:50;29.20;69.40
6484;DHT22;3275;52.376;9.694;2023-09-19T13:43:19;29.30;69.10
6484;DHT22;3275;52.376;9.694;2023-09-19T13:45:47;29.80;68.70
6484;DHT22;3275;52.376;9.694;2023-09-19T13:48:14;30.00;64.50
6484;DHT22;3275;52.376;9.694;2023-09-19T13:50:41;28.70;67.40
6484;DHT22;3275;52.376;9.694;2023-09-19T13:53:08;26.90;70.40
6484;DHT22;3275;52.376;9.694;2023-09-19T13:55:35;25.70;74.20
6484;DHT22;3275;52.376;9.694;2023-09-19T13:58:03;24.90;74.80
6484;DHT22;3275;52.376;9.694;2023-09-19T14:00:33;24.30;76.10
6484;DHT22;3275;52.376;9.694;2023-09-19T14:03:00;23.80;78.40
6484;DHT22;3275;52.376;9.694;2023-09-19T14:05:27;23.60;78.00
6484;DHT22;3275;52.376;9.694;2023-09-19T14:07:55;23.60;78.20
6484;DHT22;3275;52.376;9.694;2023-09-19T14:10:22;23.30;78.90
6484;DHT22;3275;52.376;9.694;2023-09-19T14:12:49;23.10;80.50
6484;DHT22;3275;52.376;9.694;2023-09-19T14:15:16;23.00;81.00
6484;DHT22;3275;52.376;9.694;2023-09-19T14:17:44;22.80;82.10
6484;DHT22;3275;52.376;9.694;2023-09-19T14:20:11;22.70;81.70
6484;DHT22;3275;52.376;9.694;2023-09-19T14:22:39;22.80;81.40
6484;DHT22;3275;52.376;9.694;2023-09-19T14:25:06;22.60;80.60
6484;DHT22;3275;52.376;9.694;2023-09-19T14:27:34;22.40;80.30
6484;DHT22;3275;52.376;9.694;2023-09-19T14:30:01;22.20;81.60
6484;DHT22;3275;52.376;9.694;2023-09-19T14:32:29;22.10;81.60
6484;DHT22;3275;52.376;9.694;2023-09-19T14:34:57;21.90;82.30
6484;DHT22;3275;52.376;9.694;2023-09-19T14:37:24;21.70;82.30
6484;DHT22;3275;52.376;9.694;2023-09-19T14:39:53;21.60;82.50
6484;DHT22;3275;52.376;9.694;2023-09-19T14:42:20;21.70;82.90
6484;DHT22;3275;52.376;9.694;2023-09-19T14:44:46;21.60;82.10
6484;DHT22;3275;52.376;9.694;2023-09-19T14:47:14;21.60;82.30
6484;DHT22;3275;52.376;9.694;2023-09-19T14:49:42;21.50;82.90
6484;DHT22;3275;52.376;9.694;2023-09-19T14:52:11;21.40;82.30
6484;DHT22;3275;52.376;9.694;2023-09-19T14:54:41;21.30;83.40
6484;DHT22;3275;52.376;9.694;2023-09-19T14:57:07;21.20;84.40
6484;DHT22;3275;52.376;9.694;2023-09-19T14:59:35;21.20;83.30
6484;DHT22;3275;52.376;9.694;2023-09-19T15:02:03;21.20;84.30
6484;DHT22;3275;52.376;9.694;2023-09-19T15:04:30;21.20;84.50
6484;DHT22;3275;52.376;9.694;2023-09-19T15:06:57;21.20;86.00
6484;DHT22;3275;52.376;9.694;2023-09-19T15:09:25;21.40;85.10
6484;DHT22;3275;52.376;9.694;2023-09-19T15:11:52;21.50;84.30
6484;DHT22;3275;52.376;9.694;2023-09-19T15:14:19;21.50;84.90
6484;DHT22;3275;52.376;9.694;2023-09-19T15:16:46;21.50;84.50
6484;DHT22;3275;52.376;9.694;2023-09-19T15:19:13;21.40;84.00
6484;DHT22;3275;52.376;9.694;2023-09-19T15:21:40;21.30;85.70
6484;DHT22;3275;52.376;9.694;2023-09-19T15:24:07;21.20;85.90
6484;DHT22;3275;52.376;9.694;2023-09-19T15:26:36;21.20;85.30
6484;DHT22;3275;52.376;9.694;2023-09-19T15:29:05;21.20;85.30
6484;DHT22;3275;52.376;9.694;2023-09-19T15:31:31;21.20;86.10
6484;DHT22;3275;52.376;9.694;2023-09-19T15:33:58;21.20;85.00
6484;DHT22;3275;52.376;9.694;2023-09-19T15:36:26;21.30;84.10
6484;DHT22;3275;52.376;9.694;2023-09-19T15:38:57;21.30;85.40
6484;DHT22;3275;52.376;9.694;2023-09-19T15:41:25;21.20;84.40
6484;DHT22;3275;52.376;9.694;2023-09-19T15:43:54;21.10;85.60
6484;DHT22;3275;52.376;9.694;2023-09-19T15:46:21;21.10;85.80
6484;DHT22;3275;52.376;9.694;2023-09-19T15:48:47;21.00;87.20
6484;DHT22;3275;52.376;9.694;2023-09-19T15:51:15;21.00;85.90
6484;DHT22;3275;52.376;9.694;2023-09-19T15:53:44;20.90;87.70
6484;DHT22;3275;52.376;9.694;2023-09-19T15:56:11;20.80;87.40
6484;DHT22;3275;52.376;9.694;2023-09-19T15:58:38;20.80;87.60
6484;DHT22;3275;52.376;9.694;2023-09-19T16:01:06;20.80;86.70
6484;DHT22;3275;52.376;9.694;2023-09-19T16:03:34;20.90;88.00
6484;DHT22;3275;52.376;9.694;2023-09-19T16:06:01;20.90;87.00
6484;DHT22;3275;52.376;9.694;2023-09-19T16:08:29;20.80;88.20
6484;DHT22;3275;52.376;9.694;2023-09-19T16:10:56;20.80;87.70
6484;DHT22;3275;52.376;9.694;2023-09-19T16:13:23;20.80;87.30
6484;DHT22;3275;52.376;9.694;2023-09-19T16:15:49;20.70;87.60
6484;DHT22;3275;52.376;9.694;2023-09-19T16:18:17;20.70;87.20
6484;DHT22;3275;52.376;9.694;2023-09-19T16:20:44;20.70;87.60
6484;DHT22;3275;52.376;9.694;2023-09-19T16:23:12;20.60;87.50
6484;DHT22;3275;52.376;9.694;2023-09-19T16:25:38;20.70;87.10
6484;DHT22;3275;52.376;9.694;2023-09-19T16:28:05;20.60;88.40
6484;DHT22;3275;52.376;9.694;2023-09-19T16:30:32;20.60;87.60
6484;DHT22;3275;52.376;9.694;2023-09-19T16:32:59;20.50;88.50
6484;DHT22;3275;52.376;9.694;2023-09-19T16:35:27;20.40;89.50
6484;DHT22;3275;52.376;9.694;2023-09-19T16:37:54;20.50;88.60
6484;DHT22;3275;52.376;9.694;2023-09-19T16:40:20;20.60;87.90
6484;DHT22;3275;52.376;9.694;2023-09-19T16:42:47;20.50;89.00
6484;DHT22;3275;52.376;9.694;2023-09-19T16:45:14;20.40;88.10
6484;DHT22;3275;52.376;9.694;2023-09-19T16:47:41;20.30;89.80
6484;DHT22;3275;52.376;9.694;2023-09-19T16:50:08;20.30;88.90
6484;DHT22;3275;52.376;9.694;2023-09-19T16:52:36;20.30;88.90
6484;DHT22;3275;52.376;9.694;2023-09-19T16:55:05;20.30;88.20
6484;DHT22;3275;52.376;9.694;2023-09-19T16:57:32;20.20;88.80
6484;DHT22;3275;52.376;9.694;2023-09-19T17:00:00;20.10;89.80
6484;DHT22;3275;52.376;9.694;2023-09-19T17:02:28;20.10;88.00
6484;DHT22;3275;52.376;9.694;2023-09-19T17:04:55;20.10;88.50
6484;DHT22;3275;52.376;9.694;2023-09-19T17:07:22;20.10;88.80
6484;DHT22;3275;52.376;9.694;2023-09-19T17:09:52;20.10;88.20
6484;DHT22;3275;52.376;9.694;2023-09-19T17:12:20;20.10;89.10
6484;DHT22;3275;52.376;9.694;2023-09-19T17:14:47;20.00;89.40
6484;DHT22;3275;52.376;9.694;2023-09-19T17:17:14;19.90;89.90
6484;DHT22;3275;52.376;9.694;2023-09-19T17:19:41;19.90;89.50
6484;DHT22;3275;52.376;9.694;2023-09-19T17:22:07;19.80;90.30
6484;DHT22;3275;52.376;9.694;2023-09-19T17:24:34;19.70;90.50
6484;DHT22;3275;52.376;9.694;2023-09-19T17:27:02;19.80;89.80
6484;DHT22;3275;52.376;9.694;2023-09-19T17:29:29;19.70;90.50
6484;DHT22;3275;52.376;9.694;2023-09-19T17:31:56;19.70;90.20
6484;DHT22;3275;52.376;9.694;2023-09-19T17:34:22;19.60;90.10
6484;DHT22;3275;52.376;9.694;2023-09-19T17:36:49;19.60;90.90
6484;DHT22;3275;52.376;9.694;2023-09-19T17:39:16;19.60;90.50
6484;DHT22;3275;52.376;9.694;2023-09-19T17:41:44;19.60;90.50
6484;DHT22;3275;52.376;9.694;2023-09-19T17:44:12;19.60;90.50
6484;DHT22;3275;52.376;9.694;2023-09-19T17:46:39;19.60;90.60
6484;DHT22;3275;52.376;9.694;2023-09-19T17:49:06;19.60;90.50
6484;DHT22;3275;52.376;9.694;2023-09-19T17:51:33;19.50;91.00
6484;DHT22;3275;52.376;9.694;2023-09-19T17:54:00;19.60;90.30
6484;DHT22;3275;52.376;9.694;2023-09-19T17:56:30;19.80;91.00
6484;DHT22;3275;52.376;9.694;2023-09-19T17:58:57;19.50;91.10
6484;DHT22;3275;52.376;9.694;2023-09-19T18:01:26;19.50;90.90
6484;DHT22;3275;52.376;9.694;2023-09-19T18:03:54;19.50;90.60
6484;DHT22;3275;52.376;9.694;2023-09-19T18:06:23;19.50;90.80
6484;DHT22;3275;52.376;9.694;2023-09-19T18:08:50;19.50;91.40
6484;DHT22;3275;52.376;9.694;2023-09-19T18:11:18;19.50;91.10
6484;DHT22;3275;52.376;9.694;2023-09-19T18:13:49;19.40;91.30
6484;DHT22;3275;52.376;9.694;2023-09-19T18:16:17;19.50;91.20
6484;DHT22;3275;52.376;9.694;2023-09-19T18:18:46;19.40;91.50
6484;DHT22;3275;52.376;9.694;2023-09-19T18:21:15;19.40;91.50
6484;DHT22;3275;52.376;9.694;2023-09-19T18:23:45;19.40;91.50
6484;DHT22;3275;52.376;9.694;2023-09-19T18:26:12;19.40;91.60
6484;DHT22;3275;52.376;9.694;2023-09-19T18:28:39;19.40;91.80
6484;DHT22;3275;52.376;9.694;2023-09-19T18:31:06;19.40;92.10
6484;DHT22;3275;52.376;9.694;2023-09-19T18:33:33;19.30;91.80
6484;DHT22;3275;52.376;9.694;2023-09-19T18:36:02;19.30;91.80
6484;DHT22;3275;52.376;9.694;2023-09-19T18:38:32;19.30;91.50
6484;DHT22;3275;52.376;9.694;2023-09-19T18:40:58;19.30;91.60
6484;DHT22;3275;52.376;9.694;2023-09-19T18:43:25;19.40;91.50
6484;DHT22;3275;52.376;9.694;2023-09-19T18:45:55;19.30;91.20
6484;DHT22;3275;52.376;9.694;2023-09-19T18:48:22;19.30;91.50
6484;DHT22;3275;52.376;9.694;2023-09-19T18:50:50;19.20;92.20
6484;DHT22;3275;52.376;9.694;2023-09-19T18:53:18;19.20;91.90
6484;DHT22;3275;52.376;9.694;2023-09-19T18:55:45;19.20;91.60
6484;DHT22;3275;52.376;9.694;2023-09-19T18:58:12;19.20;91.70
6484;DHT22;3275;52.376;9.694;2023-09-19T19:00:38;19.20;91.70
6484;DHT22;3275;52.376;9.694;2023-09-19T19:03:05;19.20;92.10
6484;DHT22;3275;52.376;9.694;2023-09-19T19:05:33;19.20;91.50
6484;DHT22;3275;52.376;9.694;2023-09-19T19:08:01;19.30;92.10
6484;DHT22;3275;52.376;9.694;2023-09-19T19:10:29;19.20;92.20
6484;DHT22;3275;52.376;9.694;2023-09-19T19:12:56;19.10;92.40
6484;DHT22;3275;52.376;9.694;2023-09-19T19:15:24;19.10;92.50
6484;DHT22;3275;52.376;9.694;2023-09-19T19:17:51;19.10;92.60
6484;DHT22;3275;52.376;9.694;2023-09-19T19:20:18;19.00;92.20
6484;DHT22;3275;52.376;9.694;2023-09-19T19:22:49;19.00;92.20
6484;DHT22;3275;52.376;9.694;2023-09-19T19:25:16;19.00;92.40
6484;DHT22;3275;52.376;9.694;2023-09-19T19:27:45;19.10;92.20
6484;DHT22;3275;52.376;9.694;2023-09-19T19:30:13;19.10;92.00
6484;DHT22;3275;52.376;9.694;2023-09-19T19:32:42;19.10;92.20
6484;DHT22;3275;52.376;9.694;2023-09-19T19:35:09;19.10;92.10
6484;DHT22;3275;52.376;9.694;2023-09-19T19:37:43;19.10;91.80
6484;DHT22;3275;52.376;9.694;2023-09-19T19:40:11;19.10;91.80
6484;DHT22;3275;52.376;9.694;2023-09-19T19:42:38;19.10;92.00
6484;DHT22;3275;52.376;9.694;2023-09-19T19:45:07;19.10;92.00
6484;DHT22;3275;52.376;9.694;2023-09-19T19:47:35;19.10;91.70
6484;DHT22;3275;52.376;9.694;2023-09-19T19:50:02;19.10;92.20
6484;DHT22;3275;52.376;9.694;2023-09-19T19:52:28;19.10;92.20
6484;DHT22;3275;52.376;9.694;2023-09-19T19:54:57;19.00;92.20
6484;DHT22;3275;52.376;9.694;2023-09-19T19:57:24;19.10;91.60
6484;DHT22;3275;52.376;9.694;2023-09-19T19:59:56;19.20;91.40
6484;DHT22;3275;52.376;9.694;2023-09-19T20:02:27;19.10;92.10
6484;DHT22;3275;52.376;9.694;2023-09-19T20:04:54;19.10;92.30
6484;DHT22;3275;52.376;9.694;2023-09-19T20:07:24;19.00;92.20
6484;DHT22;3275;52.376;9.694;2023-09-19T20:09:51;19.00;92.50
6484;DHT22;3275;52.376;9.694;2023-09-19T20:12:18;19.00;92.20
6484;DHT22;3275;52.376;9.694;2023-09-19T20:14:45;19.00;92.10
6484;DHT22;3275;52.376;9.694;2023-09-19T20:17:12;19.00;91.80
6484;DHT22;3275;52.376;9.694;2023-09-19T20:19:41;19.00;92.40
6484;DHT22;3275;52.376;9.694;2023-09-19T20:22:08;19.00;92.20
6484;DHT22;3275;52.376;9.694;2023-09-19T20:24:37;19.00;92.20
6484;DHT22;3275;52.376;9.694;2023-09-19T20:27:04;19.00;92.30
6484;DHT22;3275;52.376;9.694;2023-09-19T20:29:33;19.00;92.00
6484;DHT22;3275;52.376;9.694;2023-09-19T20:32:00;19.00;91.90
6484;DHT22;3275;52.376;9.694;2023-09-19T20:34:27;18.90;91.80
6484;DHT22;3275;52.376;9.694;2023-09-19T20:36:55;18.90;92.00
6484;DHT22;3275;52.376;9.694;2023-09-19T20:39:24;19.00;92.30
6484;DHT22;3275;52.376;9.694;2023-09-19T20:41:54;19.10;92.10
6484;DHT22;3275;52.376;9.694;2023-09-19T20:44:21;19.00;92.40
6484;DHT22;3275;52.376;9.694;2023-09-19T20:46:50;19.00;92.20
6484;DHT22;3275;52.376;9.694;2023-09-19T20:49:18;19.00;92.20
6484;DHT22;3275;52.376;9.694;2023-09-19T20:51:45;18.90;92.50
6484;DHT22;3275;52.376;9.694;2023-09-19T20:54:13;18.90;92.10
6484;DHT22;3275;52.376;9.694;2023-09-19T20:56:42;19.00;92.00
6484;DHT22;3275;52.376;9.694;2023-09-19T20:59:09;18.90;92.10
6484;DHT22;3275;52.376;9.694;2023-09-19T21:01:39;19.00;91.90
6484;DHT22;3275;52.376;9.694;2023-09-19T21:04:05;19.10;91.50
6484;DHT22;3275;52.376;9.694;2023-09-19T21:06:32;19.00;92.20
6484;DHT22;3275;52.376;9.694;2023-09-19T21:08:59;19.00;92.40
6484;DHT22;3275;52.376;9.694;2023-09-19T21:11:27;19.00;92.20
6484;DHT22;3275;52.376;9.694;2023-09-19T21:13:54;18.90;92.20
6484;DHT22;3275;52.376;9.694;2023-09-19T21:16:21;18.90;92.50
6484;DHT22;3275;52.376;9.694;2023-09-19T21:18:48;19.00;92.00
6484;DHT22;3275;52.376;9.694;2023-09-19T21:21:15;19.00;91.80
6484;DHT22;3275;52.376;9.694;2023-09-19T21:23:43;19.00;91.80
6484;DHT22;3275;52.376;9.694;2023-09-19T21:26:10;19.00;91.80
6484;DHT22;3275;52.376;9.694;2023-09-19T21:28:40;19.10;91.90
6484;DHT22;3275;52.376;9.694;2023-09-19T21:31:09;19.00;92.20
6484;DHT22;3275;52.376;9.694;2023-09-19T21:33:37;18.90;92.20
6484;DHT22;3275;52.376;9.694;2023-09-19T21:36:05;19.00;92.00
6484;DHT22;3275;52.376;9.694;2023-09-19T21:38:34;18.90;92.10
6484;DHT22;3275;52.376;9.694;2023-09-19T21:41:06;18.90;92.50
6484;DHT22;3275;52.376;9.694;2023-09-19T21:43:34;18.90;92.20
6484;DHT22;3275;52.376;9.694;2023-09-19T21:46:02;18.90;92.20
6484;DHT22;3275;52.376;9.694;2023-09-19T21:48:29;18.90;92.20
6484;DHT22;3275;52.376;9.694;2023-09-19T21:50:56;19.00;92.10
6484;DHT22;3275;52.376;9.694;2023-09-19T21:53:23;19.00;91.90
6484;DHT22;3275;52.376;9.694;2023-09-19T21:55:50;19.10;92.00
6484;DHT22;3275;52.376;9.694;2023-09-19T21:58:17;18.90;92.40
6484;DHT22;3275;52.376;9.694;2023-09-19T22:00:44;18.90;92.70
6484;DHT22;3275;52.376;9.694;2023-09-19T22:03:13;18.80;92.80
6484;DHT22;3275;52.376;9.694;2023-09-19T22:05:40;18.90;92.50
6484;DHT22;3275;52.376;9.694;2023-09-19T22:08:07;18.80;92.80
6484;DHT22;3275;52.376;9.694;2023-09-19T22:10:40;18.80;92.70
6484;DHT22;3275;52.376;9.694;2023-09-19T22:13:07;18.80;92.80
6484;DHT22;3275;52.376;9.694;2023-09-19T22:15:34;18.80;92.80
6484;DHT22;3275;52.376;9.694;2023-09-19T22:18:05;18.80;92.90
6484;DHT22;3275;52.376;9.694;2023-09-19T22:20:33;18.80;92.60
6484;DHT22;3275;52.376;9.694;2023-09-19T22:23:02;18.80;92.60
6484;DHT22;3275;52.376;9.694;2023-09-19T22:25:29;18.90;93.00
6484;DHT22;3275;52.376;9.694;2023-09-19T22:28:02;18.90;92.70